createdAt,value
2023-05-21T00:00:40.852Z,34.82
2023-05-21T00:01:40.853Z,36.78
2023-05-21T00:02:41.082Z,35.46
2023-05-21T00:03:41.134Z,33.19
2023-05-21T00:04:40.925Z,34.43
2023-05-21T00:05:40.999Z,37.42
2023-05-21T00:06:40.970Z,36.20
2023-05-21T00:07:40.995Z,34.73
2023-05-21T00:08:41.146Z,38.54
2023-05-21T00:09:41.093Z,34.19
2023-05-21T00:10:41.105Z,32.97
2023-05-21T00:11:41.098Z,34.97
2023-05-21T00:12:41.115Z,38.20
2023-05-21T00:13:41.130Z,37.48
2023-05-21T00:14:41.165Z,37.14
2023-05-21T00:15:41.201Z,34.77
2023-05-21T00:16:41.307Z,37.65
2023-05-21T00:17:41.293Z,37.57
2023-05-21T00:18:41.303Z,37.33
2023-05-21T00:19:41.294Z,40.25
2023-05-21T00:20:41.314Z,39.95
2023-05-21T00:21:41.315Z,37.89
2023-05-21T00:22:41.356Z,37.88
2023-05-21T00:23:41.388Z,37.20
2023-05-21T00:24:41.414Z,38.41
2023-05-21T00:25:41.429Z,37.10
2023-05-21T00:26:41.450Z,36.35
2023-05-21T00:27:41.496Z,39.30
2023-05-21T00:28:41.501Z,38.09
2023-05-21T00:29:44.088Z,37.34
2023-05-21T00:30:41.515Z,38.88
2023-05-21T00:31:41.537Z,39.59
2023-05-21T00:32:41.528Z,37.12
2023-05-21T00:33:41.488Z,39.21
2023-05-21T00:34:41.488Z,34.29
2023-05-21T00:35:41.504Z,36.56
2023-05-21T00:36:41.476Z,40.86
2023-05-21T00:37:41.464Z,38.38
2023-05-21T00:38:41.442Z,40.70
2023-05-21T00:39:41.432Z,33.99
2023-05-21T00:40:41.462Z,39.20
2023-05-21T00:41:41.452Z,39.19
2023-05-21T00:42:41.422Z,37.71
2023-05-21T00:43:41.432Z,38.72
2023-05-21T00:44:41.438Z,38.53
2023-05-21T00:45:41.420Z,41.43
2023-05-21T00:46:41.397Z,39.53
2023-05-21T00:47:41.418Z,40.06
2023-05-21T00:48:41.389Z,37.37
2023-05-21T00:49:41.391Z,39.01
2023-05-21T00:50:41.409Z,41.50
2023-05-21T00:51:41.354Z,41.21
2023-05-21T00:52:41.373Z,38.87
2023-05-21T00:53:41.357Z,39.13
2023-05-21T00:54:41.366Z,39.03
2023-05-21T00:55:41.503Z,40.42
2023-05-21T00:56:41.324Z,41.57
2023-05-21T00:57:41.337Z,40.05
2023-05-21T00:58:41.303Z,38.52
2023-05-21T00:59:41.305Z,39.70
2023-05-21T01:00:41.313Z,37.77
2023-05-21T01:01:41.316Z,38.67
2023-05-21T01:02:41.429Z,36.44
2023-05-21T01:03:41.395Z,38.94
2023-05-21T01:04:41.264Z,37.02
2023-05-21T01:05:41.273Z,38.44
2023-05-21T01:06:41.273Z,39.17
2023-05-21T01:07:41.282Z,41.30
2023-05-21T01:08:41.257Z,39.60
2023-05-21T01:09:41.262Z,39.80
2023-05-21T01:10:41.246Z,42.71
2023-05-21T01:11:41.243Z,39.67
2023-05-21T01:12:41.205Z,36.53
2023-05-21T01:13:41.247Z,38.81
2023-05-21T01:14:41.204Z,39.49
2023-05-21T01:15:41.202Z,38.76
2023-05-21T01:16:41.244Z,40.20
2023-05-21T01:17:41.194Z,38.73
2023-05-21T01:18:41.228Z,38.59
2023-05-21T01:19:41.205Z,37.11
2023-05-21T01:20:41.149Z,38.53
2023-05-21T01:21:41.146Z,37.46
2023-05-21T01:22:41.134Z,38.59
2023-05-21T01:23:41.124Z,40.27
2023-05-21T01:24:41.148Z,41.13
2023-05-21T01:25:41.148Z,38.09
2023-05-21T01:26:41.107Z,38.49
2023-05-21T01:27:41.099Z,37.75
2023-05-21T01:28:41.090Z,41.09
2023-05-21T01:29:41.084Z,38.64
2023-05-21T01:30:41.114Z,39.62
2023-05-21T01:31:41.066Z,37.42
2023-05-21T01:32:41.128Z,37.75
2023-05-21T01:33:41.093Z,40.38
2023-05-21T01:34:41.056Z,39.03
2023-05-21T01:35:41.047Z,40.16
2023-05-21T01:36:41.031Z,37.97
2023-05-21T01:37:41.029Z,40.61
2023-05-21T01:38:41.032Z,38.36
2023-05-21T01:39:41.020Z,39.89
2023-05-21T01:40:41.009Z,38.61
2023-05-21T01:41:40.995Z,39.91
2023-05-21T01:42:41.010Z,37.51
2023-05-21T01:43:41.005Z,41.32
2023-05-21T01:44:40.985Z,39.84
2023-05-21T01:45:40.974Z,39.30
2023-05-21T01:46:41.019Z,40.24
2023-05-21T01:47:41.040Z,39.57
2023-05-21T01:48:40.974Z,40.59
2023-05-21T01:49:40.951Z,43.17
2023-05-21T01:50:40.965Z,41.07
2023-05-21T01:51:40.996Z,37.96
2023-05-21T01:52:41.025Z,39.83
2023-05-21T01:53:41.066Z,39.44
2023-05-21T01:54:41.094Z,38.79
2023-05-21T01:55:41.108Z,37.09
2023-05-21T01:56:41.130Z,38.79
2023-05-21T01:57:41.168Z,39.33
2023-05-21T01:58:41.174Z,38.22
2023-05-21T01:59:41.208Z,38.27
2023-05-21T02:00:41.234Z,38.60
2023-05-21T02:01:41.291Z,39.13
2023-05-21T02:02:41.386Z,38.85
2023-05-21T02:03:41.419Z,36.08
2023-05-21T02:04:41.361Z,39.79
2023-05-21T02:05:41.400Z,39.92
2023-05-21T02:06:41.412Z,39.33
2023-05-21T02:07:41.454Z,39.14
2023-05-21T02:08:41.488Z,40.31
2023-05-21T02:09:41.510Z,41.46
2023-05-21T02:10:41.578Z,41.61
2023-05-21T02:11:41.586Z,40.60
2023-05-21T02:12:41.626Z,43.13
2023-05-21T02:13:41.641Z,38.14
2023-05-21T02:14:41.677Z,40.94
2023-05-21T02:15:41.722Z,40.52
2023-05-21T02:16:41.793Z,41.26
2023-05-21T02:17:41.814Z,38.26
2023-05-21T02:18:41.810Z,40.72
2023-05-21T02:19:41.821Z,41.94
2023-05-21T02:20:41.872Z,40.67
2023-05-21T02:21:41.893Z,39.16
2023-05-21T02:22:41.944Z,37.80
2023-05-21T02:23:41.945Z,41.52
2023-05-21T02:24:41.977Z,38.70
2023-05-21T02:25:42.013Z,37.60
2023-05-21T02:26:42.040Z,39.16
2023-05-21T02:27:42.078Z,36.06
2023-05-21T02:28:42.128Z,40.44
2023-05-21T02:29:42.130Z,37.91
2023-05-21T02:30:42.171Z,38.75
2023-05-21T02:31:42.192Z,40.63
2023-05-21T02:32:42.276Z,43.19
2023-05-21T02:33:42.281Z,43.03
2023-05-21T02:34:42.384Z,38.74
2023-05-21T02:35:42.341Z,39.21
2023-05-21T02:36:42.346Z,39.81
2023-05-21T02:37:42.366Z,40.34
2023-05-21T02:38:42.397Z,39.71
2023-05-21T02:39:42.411Z,42.08
2023-05-21T02:40:42.448Z,42.19
2023-05-21T02:41:42.498Z,40.76
2023-05-21T02:42:42.509Z,41.01
2023-05-21T02:43:42.568Z,43.40
2023-05-21T02:44:42.589Z,42.63
2023-05-21T02:45:42.648Z,41.27
2023-05-21T02:46:42.622Z,41.07
2023-05-21T02:47:42.661Z,41.00
2023-05-21T02:48:42.662Z,39.81
2023-05-21T02:49:42.689Z,38.76
2023-05-21T02:50:42.750Z,39.28
2023-05-21T02:51:42.767Z,40.66
2023-05-21T02:52:42.793Z,42.84
2023-05-21T02:53:42.846Z,38.27
2023-05-21T02:54:42.872Z,39.51
2023-05-21T02:55:42.902Z,41.91
2023-05-21T02:56:42.932Z,41.98
2023-05-21T02:57:42.960Z,40.82
2023-05-21T02:58:42.983Z,41.38
2023-05-21T02:59:43.016Z,41.06
2023-05-21T03:00:43.081Z,39.42
2023-05-21T03:01:43.109Z,35.78
2023-05-21T03:02:43.197Z,39.49
2023-05-21T03:03:43.167Z,39.84
2023-05-21T03:04:43.180Z,39.42
2023-05-21T03:05:43.234Z,44.59
2023-05-21T03:06:43.260Z,40.16
2023-05-21T03:07:43.286Z,41.09
2023-05-21T03:08:43.335Z,40.22
2023-05-21T03:09:43.345Z,40.96
2023-05-21T03:10:43.395Z,36.76
2023-05-21T03:11:43.404Z,40.70
2023-05-21T03:12:43.475Z,35.92
2023-05-21T03:13:43.536Z,44.19
2023-05-21T03:14:43.512Z,36.17
2023-05-21T03:15:43.574Z,41.51
2023-05-21T03:16:43.604Z,42.32
2023-05-21T03:17:43.683Z,41.93
2023-05-21T03:18:43.683Z,38.58
2023-05-21T03:19:43.681Z,37.15
2023-05-21T03:20:43.745Z,41.89
2023-05-21T03:21:43.742Z,41.93
2023-05-21T03:22:43.757Z,40.77
2023-05-21T03:23:43.792Z,40.73
2023-05-21T03:24:43.822Z,39.26
2023-05-21T03:25:43.846Z,40.30
2023-05-21T03:26:43.863Z,40.63
2023-05-21T03:27:43.906Z,38.20
2023-05-21T03:28:43.958Z,43.10
2023-05-21T03:29:43.945Z,40.39
2023-05-21T03:30:43.993Z,39.64
2023-05-21T03:31:44.048Z,40.13
2023-05-21T03:32:44.076Z,39.01
2023-05-21T03:33:44.093Z,40.16
2023-05-21T03:34:44.088Z,41.99
2023-05-21T03:35:44.116Z,40.36
2023-05-21T03:36:44.129Z,40.66
2023-05-21T03:37:44.153Z,41.31
2023-05-21T03:38:44.196Z,38.81
2023-05-21T03:39:44.227Z,41.63
2023-05-21T03:40:44.261Z,41.57
2023-05-21T03:41:44.253Z,40.70
2023-05-21T03:42:44.312Z,40.29
2023-05-21T03:43:44.306Z,40.99
2023-05-21T03:44:44.338Z,40.86
2023-05-21T03:45:44.775Z,38.07
2023-05-21T03:46:44.399Z,41.81
2023-05-21T03:47:44.465Z,40.10
2023-05-21T03:48:44.448Z,39.40
2023-05-21T03:49:44.472Z,42.12
2023-05-21T03:50:44.513Z,43.37
2023-05-21T03:51:44.516Z,40.32
2023-05-21T03:52:44.543Z,40.54
2023-05-21T03:53:44.586Z,39.93
2023-05-21T03:54:44.593Z,42.66
2023-05-21T03:55:44.642Z,42.30
2023-05-21T03:56:44.666Z,41.82
2023-05-21T03:57:44.674Z,40.20
2023-05-21T03:58:44.720Z,42.17
2023-05-21T03:59:44.751Z,38.90
2023-05-21T04:00:44.778Z,39.64
2023-05-21T04:01:44.805Z,42.02
2023-05-21T04:02:44.887Z,42.56
2023-05-21T04:03:44.999Z,44.28
2023-05-21T04:04:44.967Z,40.19
2023-05-21T04:05:44.919Z,43.73
2023-05-21T04:06:44.947Z,42.19
2023-05-21T04:07:44.971Z,40.81
2023-05-21T04:08:45.002Z,41.96
2023-05-21T04:09:45.026Z,42.37
2023-05-21T04:10:45.074Z,42.41
2023-05-21T04:11:45.105Z,42.25
2023-05-21T04:12:45.141Z,41.27
2023-05-21T04:13:45.178Z,43.34
2023-05-21T04:14:45.191Z,37.86
2023-05-21T04:15:45.304Z,41.23
2023-05-21T04:16:45.256Z,40.01
2023-05-21T04:17:45.338Z,42.77
2023-05-21T04:18:45.743Z,42.72
2023-05-21T04:19:45.334Z,39.73
2023-05-21T04:20:45.405Z,39.48
2023-05-21T04:21:45.399Z,42.20
2023-05-21T04:22:45.419Z,40.59
2023-05-21T04:23:45.459Z,38.64
2023-05-21T04:24:45.513Z,43.25
2023-05-21T04:25:45.496Z,41.57
2023-05-21T04:26:45.514Z,40.30
2023-05-21T04:27:45.535Z,39.92
2023-05-21T04:28:45.583Z,40.79
2023-05-21T04:29:45.601Z,39.13
2023-05-21T04:30:45.626Z,42.77
2023-05-21T04:31:45.679Z,42.31
2023-05-21T04:32:45.703Z,42.08
2023-05-21T04:33:45.710Z,42.32
2023-05-21T04:34:45.758Z,41.52
2023-05-21T04:35:45.787Z,40.17
2023-05-21T04:36:45.804Z,40.06
2023-05-21T04:37:45.892Z,41.20
2023-05-21T04:38:45.858Z,40.95
2023-05-21T04:39:45.904Z,42.48
2023-05-21T04:40:45.911Z,40.38
2023-05-21T04:41:45.953Z,39.66
2023-05-21T04:42:45.950Z,39.95
2023-05-21T04:43:45.986Z,42.61
2023-05-21T04:44:46.001Z,41.37
2023-05-21T04:45:46.049Z,39.14
2023-05-21T04:46:46.180Z,42.73
2023-05-21T04:47:46.120Z,39.42
2023-05-21T04:48:46.119Z,40.43
2023-05-21T04:49:46.133Z,40.20
2023-05-21T04:50:46.210Z,40.84
2023-05-21T04:51:46.177Z,39.78
2023-05-21T04:52:46.199Z,40.22
2023-05-21T04:53:46.224Z,37.75
2023-05-21T04:54:46.238Z,38.35
2023-05-21T04:55:46.284Z,41.89
2023-05-21T04:56:46.303Z,42.71
2023-05-21T04:57:46.307Z,39.96
2023-05-21T04:58:46.329Z,39.56
2023-05-21T04:59:46.352Z,37.14
2023-05-21T05:00:46.427Z,37.32
2023-05-21T05:01:46.412Z,39.55
2023-05-21T05:02:46.520Z,39.27
2023-05-21T05:03:46.507Z,40.39
2023-05-21T05:04:46.492Z,41.23
2023-05-21T05:05:46.500Z,37.18
2023-05-21T05:06:46.516Z,37.77
2023-05-21T05:07:46.554Z,37.77
2023-05-21T05:08:46.605Z,39.90
2023-05-21T05:09:46.606Z,36.62
2023-05-21T05:10:46.631Z,39.36
2023-05-21T05:11:46.652Z,39.40
2023-05-21T05:12:46.673Z,37.13
2023-05-21T05:13:46.723Z,38.79
2023-05-21T05:14:46.727Z,40.94
2023-05-21T05:15:49.376Z,40.23
2023-05-21T05:16:46.763Z,40.22
2023-05-21T05:17:46.757Z,40.83
2023-05-21T05:18:46.737Z,39.91
2023-05-21T05:19:46.764Z,40.63
2023-05-21T05:20:46.743Z,39.00
2023-05-21T05:21:46.723Z,39.97
2023-05-21T05:22:46.707Z,41.04
2023-05-21T05:23:46.692Z,37.39
2023-05-21T05:24:46.690Z,40.58
2023-05-21T05:25:46.707Z,41.28
2023-05-21T05:26:47.140Z,38.17
2023-05-21T05:27:46.690Z,42.22
2023-05-21T05:28:46.664Z,36.29
2023-05-21T05:29:46.677Z,38.77
2023-05-21T05:30:46.664Z,41.45
2023-05-21T05:31:46.664Z,39.43
2023-05-21T05:32:46.659Z,39.86
2023-05-21T05:33:46.642Z,39.02
2023-05-21T05:34:46.628Z,40.02
2023-05-21T05:35:46.617Z,38.71
2023-05-21T05:36:46.606Z,38.71
2023-05-21T05:37:46.607Z,39.99
2023-05-21T05:38:46.605Z,38.10
2023-05-21T05:39:46.594Z,36.95
2023-05-21T05:40:46.597Z,37.31
2023-05-21T05:41:46.586Z,39.79
2023-05-21T05:42:46.573Z,40.57
2023-05-21T05:43:46.555Z,37.82
2023-05-21T05:44:46.550Z,38.99
2023-05-21T05:45:46.546Z,38.60
2023-05-21T05:46:46.637Z,39.09
2023-05-21T05:47:46.562Z,37.66
2023-05-21T05:48:46.521Z,40.58
2023-05-21T05:49:46.508Z,43.29
2023-05-21T05:50:46.515Z,40.60
2023-05-21T05:51:46.494Z,39.55
2023-05-21T05:52:46.490Z,39.81
2023-05-21T05:53:46.510Z,37.22
2023-05-21T05:54:46.480Z,38.07
2023-05-21T05:55:48.132Z,40.69
2023-05-21T05:56:46.479Z,38.65
2023-05-21T05:57:46.469Z,41.09
2023-05-21T05:58:46.457Z,41.02
2023-05-21T05:59:46.440Z,38.90
2023-05-21T06:00:46.432Z,38.09
2023-05-21T06:01:46.434Z,37.17
2023-05-21T06:02:46.520Z,40.51
2023-05-21T06:03:46.596Z,37.97
2023-05-21T06:04:46.420Z,40.84
2023-05-21T06:05:46.487Z,40.17
2023-05-21T06:06:46.399Z,39.42
2023-05-21T06:07:46.377Z,38.56
2023-05-21T06:08:46.397Z,40.93
2023-05-21T06:09:46.379Z,37.60
2023-05-21T06:10:46.368Z,39.12
2023-05-21T06:11:46.357Z,40.97
2023-05-21T06:12:46.368Z,38.69
2023-05-21T06:13:46.357Z,40.97
2023-05-21T06:14:46.341Z,39.98
2023-05-21T06:15:46.388Z,37.29
2023-05-21T06:16:46.358Z,38.33
2023-05-21T06:17:46.373Z,40.58
2023-05-21T06:18:46.364Z,40.51
2023-05-21T06:19:46.291Z,40.14
2023-05-21T06:20:46.625Z,39.55
2023-05-21T06:21:46.328Z,40.92
2023-05-21T06:22:46.338Z,40.91
2023-05-21T06:23:46.368Z,39.12
2023-05-21T06:24:46.370Z,41.41
2023-05-21T06:25:46.407Z,36.40
2023-05-21T06:26:46.411Z,39.92
2023-05-21T06:27:46.419Z,39.05
2023-05-21T06:28:46.430Z,40.33
2023-05-21T06:29:46.466Z,39.83
2023-05-21T06:30:46.484Z,37.30
2023-05-21T06:31:46.509Z,39.76
2023-05-21T06:32:46.688Z,39.79
2023-05-21T06:33:46.620Z,35.29
2023-05-21T06:34:46.528Z,38.17
2023-05-21T06:35:46.546Z,40.36
2023-05-21T06:36:46.564Z,41.56
2023-05-21T06:37:46.601Z,39.01
2023-05-21T06:38:46.592Z,37.94
2023-05-21T06:39:46.607Z,40.80
2023-05-21T06:40:46.669Z,41.21
2023-05-21T06:41:46.641Z,41.67
2023-05-21T06:42:46.659Z,39.28
2023-05-21T06:43:46.671Z,38.69
2023-05-21T06:44:46.673Z,39.08
2023-05-21T06:45:46.734Z,41.51
2023-05-21T06:46:46.717Z,40.34
2023-05-21T06:47:46.757Z,41.89
2023-05-21T06:48:46.745Z,39.97
2023-05-21T06:49:46.753Z,37.08
2023-05-21T06:50:46.763Z,41.98
2023-05-21T06:51:46.757Z,36.57
2023-05-21T06:52:46.760Z,41.92
2023-05-21T06:53:46.792Z,41.61
2023-05-21T06:54:46.816Z,40.96
2023-05-21T06:55:46.819Z,40.06
2023-05-21T06:56:46.836Z,42.12
2023-05-21T06:57:46.849Z,40.15
2023-05-21T06:58:46.831Z,40.13
2023-05-21T06:59:46.850Z,38.82
2023-05-21T07:00:46.899Z,42.40
2023-05-21T07:01:46.891Z,39.87
2023-05-21T07:02:47.002Z,41.66
2023-05-21T07:03:46.945Z,38.09
2023-05-21T07:04:46.913Z,41.38
2023-05-21T07:05:46.918Z,40.95
2023-05-21T07:06:46.943Z,40.71
2023-05-21T07:07:46.942Z,38.53
2023-05-21T07:08:46.943Z,38.72
2023-05-21T07:09:46.962Z,41.21
2023-05-21T07:10:46.974Z,39.10
2023-05-21T07:11:46.990Z,41.66
2023-05-21T07:12:46.977Z,42.89
2023-05-21T07:13:46.993Z,39.09
2023-05-21T07:14:46.989Z,38.78
2023-05-21T07:15:47.039Z,43.37
2023-05-21T07:16:47.035Z,41.40
2023-05-21T07:17:47.053Z,40.02
2023-05-21T07:18:47.035Z,40.28
2023-05-21T07:19:47.059Z,42.77
2023-05-21T07:20:47.068Z,42.46
2023-05-21T07:21:47.079Z,41.60
2023-05-21T07:22:47.075Z,41.35
2023-05-21T07:23:47.090Z,43.43
2023-05-21T07:24:47.096Z,42.56
2023-05-21T07:25:47.134Z,42.83
2023-05-21T07:26:47.123Z,39.87
2023-05-21T07:27:47.178Z,38.23
2023-05-21T07:28:47.216Z,39.19
2023-05-21T07:29:47.181Z,41.11
2023-05-21T07:30:47.220Z,41.39
2023-05-21T07:31:47.161Z,40.03
2023-05-21T07:32:47.226Z,37.71
2023-05-21T07:33:47.203Z,39.01
2023-05-21T07:34:47.193Z,40.14
2023-05-21T07:35:47.213Z,40.36
2023-05-21T07:36:47.207Z,40.58
2023-05-21T07:37:47.253Z,36.98
2023-05-21T07:38:47.226Z,40.64
2023-05-21T07:39:47.244Z,41.63
2023-05-21T07:40:47.271Z,37.24
2023-05-21T07:41:47.259Z,38.80
2023-05-21T07:42:47.272Z,40.26
2023-05-21T07:43:47.297Z,44.03
2023-05-21T07:44:47.265Z,38.43
2023-05-21T07:45:47.272Z,39.60
2023-05-21T07:46:47.309Z,39.75
2023-05-21T07:47:47.322Z,39.78
2023-05-21T07:48:47.315Z,36.94
2023-05-21T07:49:47.308Z,40.38
2023-05-21T07:50:47.339Z,40.00
2023-05-21T07:51:47.303Z,39.87
2023-05-21T07:52:47.345Z,39.28
2023-05-21T07:53:47.328Z,38.79
2023-05-21T07:54:47.331Z,38.12
2023-05-21T07:55:47.367Z,39.29
2023-05-21T07:56:47.360Z,37.45
2023-05-21T07:57:47.372Z,39.01
2023-05-21T07:58:47.371Z,41.27
2023-05-21T07:59:47.364Z,37.74
2023-05-21T08:00:47.402Z,38.63
2023-05-21T08:01:47.373Z,40.38
2023-05-21T08:02:47.500Z,38.71
2023-05-21T08:03:47.503Z,40.00
2023-05-21T08:04:47.444Z,40.54
2023-05-21T08:05:47.425Z,40.56
2023-05-21T08:06:47.407Z,41.01
2023-05-21T08:07:47.428Z,39.62
2023-05-21T08:08:47.421Z,38.64
2023-05-21T08:09:47.433Z,36.09
2023-05-21T08:10:47.427Z,38.79
2023-05-21T08:11:47.429Z,41.19
2023-05-21T08:12:47.432Z,38.61
2023-05-21T08:13:47.431Z,39.70
2023-05-21T08:14:47.451Z,42.87
2023-05-21T08:15:47.501Z,38.86
2023-05-21T08:16:47.531Z,40.77
2023-05-21T08:17:47.494Z,37.55
2023-05-21T08:18:47.496Z,40.24
2023-05-21T08:19:47.461Z,39.83
2023-05-21T08:20:47.464Z,39.12
2023-05-21T08:21:47.449Z,39.49
2023-05-21T08:22:47.451Z,42.45
2023-05-21T08:23:47.443Z,38.42
2023-05-21T08:24:47.441Z,38.06
2023-05-21T08:25:47.458Z,40.30
2023-05-21T08:26:47.505Z,37.01
2023-05-21T08:27:47.440Z,39.21
2023-05-21T08:28:47.472Z,38.68
2023-05-21T08:29:47.448Z,38.51
2023-05-21T08:30:47.443Z,38.04
2023-05-21T08:31:47.549Z,39.81
2023-05-21T08:32:47.447Z,42.81
2023-05-21T08:33:47.424Z,40.34
2023-05-21T08:34:47.435Z,41.92
2023-05-21T08:35:47.456Z,40.23
2023-05-21T08:36:47.418Z,39.43
2023-05-21T08:37:47.445Z,40.83
2023-05-21T08:38:47.408Z,38.88
2023-05-21T08:39:47.414Z,39.58
2023-05-21T08:40:47.441Z,41.71
2023-05-21T08:41:47.415Z,40.14
2023-05-21T08:42:47.446Z,39.34
2023-05-21T08:43:50.160Z,37.31
2023-05-21T08:44:47.426Z,41.85
2023-05-21T08:45:47.459Z,42.61
2023-05-21T08:46:47.406Z,37.18
2023-05-21T08:47:47.406Z,40.15
2023-05-21T08:48:47.432Z,38.57
2023-05-21T08:49:47.383Z,39.55
2023-05-21T08:50:47.385Z,39.03
2023-05-21T08:51:47.393Z,40.35
2023-05-21T08:52:47.355Z,40.19
2023-05-21T08:53:47.355Z,40.07
2023-05-21T08:54:47.342Z,39.84
2023-05-21T08:55:47.335Z,41.40
2023-05-21T08:56:47.336Z,39.25
2023-05-21T08:57:47.339Z,37.78
2023-05-21T08:58:47.322Z,41.76
2023-05-21T08:59:47.309Z,39.56
2023-05-21T09:00:47.311Z,41.71
2023-05-21T09:01:47.356Z,40.85
2023-05-21T09:02:47.324Z,39.36
2023-05-21T09:03:47.362Z,41.21
2023-05-21T09:04:47.262Z,38.78
2023-05-21T09:05:47.270Z,40.29
2023-05-21T09:06:47.269Z,39.78
2023-05-21T09:07:47.249Z,42.34
2023-05-21T09:08:47.239Z,39.38
2023-05-21T09:09:47.272Z,38.79
2023-05-21T09:10:47.227Z,41.92
2023-05-21T09:11:47.233Z,39.22
2023-05-21T09:12:47.209Z,37.83
2023-05-21T09:13:47.208Z,42.63
2023-05-21T09:14:47.200Z,43.68
2023-05-21T09:15:47.196Z,43.12
2023-05-21T09:16:47.228Z,40.14
2023-05-21T09:17:47.219Z,42.43
2023-05-21T09:18:47.215Z,40.90
2023-05-21T09:19:47.167Z,39.50
2023-05-21T09:20:47.151Z,41.08
2023-05-21T09:21:47.173Z,43.95
2023-05-21T09:22:47.143Z,41.83
2023-05-21T09:23:47.132Z,40.10
2023-05-21T09:24:47.136Z,41.17
2023-05-21T09:25:47.146Z,40.63
2023-05-21T09:26:47.118Z,42.43
2023-05-21T09:27:47.156Z,41.48
2023-05-21T09:28:47.188Z,42.53
2023-05-21T09:29:47.103Z,40.66
2023-05-21T09:30:47.125Z,37.43
2023-05-21T09:31:47.333Z,41.93
2023-05-21T09:32:47.108Z,41.00
2023-05-21T09:33:47.096Z,43.63
2023-05-21T09:34:47.088Z,43.83
2023-05-21T09:35:47.226Z,39.67
2023-05-21T09:36:47.094Z,42.71
2023-05-21T09:37:47.073Z,41.38
2023-05-21T09:38:47.040Z,39.80
2023-05-21T09:39:47.057Z,40.89
2023-05-21T09:40:47.025Z,40.22
2023-05-21T09:41:47.022Z,40.14
2023-05-21T09:42:47.065Z,38.55
2023-05-21T09:43:47.009Z,38.80
2023-05-21T09:44:46.997Z,41.58
2023-05-21T09:45:46.996Z,39.62
2023-05-21T09:46:47.067Z,39.56
2023-05-21T09:47:47.170Z,39.22
2023-05-21T09:48:47.216Z,42.73
2023-05-21T09:49:47.308Z,40.60
2023-05-21T09:50:47.708Z,41.84
2023-05-21T09:51:47.360Z,41.22
2023-05-21T09:52:47.416Z,39.55
2023-05-21T09:53:47.503Z,40.75
2023-05-21T09:54:47.544Z,37.64
2023-05-21T09:55:47.618Z,38.74
2023-05-21T09:56:47.675Z,42.06
2023-05-21T09:57:50.494Z,41.50
2023-05-21T09:58:47.718Z,42.49
2023-05-21T09:59:47.715Z,41.41
2023-05-21T10:00:47.777Z,36.72
2023-05-21T10:01:47.764Z,41.45
2023-05-21T10:02:47.764Z,39.12
2023-05-21T10:03:49.965Z,41.70
2023-05-21T10:04:47.732Z,41.82
2023-05-21T10:05:47.669Z,41.88
2023-05-21T10:06:47.679Z,41.88
2023-05-21T10:07:47.651Z,42.01
2023-05-21T10:08:47.653Z,41.03
2023-05-21T10:09:47.648Z,40.47
2023-05-21T10:10:47.686Z,39.72
2023-05-21T10:11:47.646Z,36.17
2023-05-21T10:12:47.630Z,37.86
2023-05-21T10:13:47.615Z,38.72
2023-05-21T10:14:47.637Z,40.37
2023-05-21T10:15:50.229Z,39.65
2023-05-21T10:16:47.743Z,39.87
2023-05-21T10:17:47.639Z,40.26
2023-05-21T10:18:47.626Z,36.76
2023-05-21T10:19:47.593Z,39.36
2023-05-21T10:20:47.595Z,39.08
2023-05-21T10:21:47.559Z,39.29
2023-05-21T10:22:47.566Z,40.86
2023-05-21T10:23:47.584Z,37.80
2023-05-21T10:24:47.567Z,36.79
2023-05-21T10:25:47.548Z,36.19
2023-05-21T10:26:47.536Z,37.58
2023-05-21T10:27:47.523Z,39.47
2023-05-21T10:28:47.532Z,38.54
2023-05-21T10:29:47.537Z,35.96
2023-05-21T10:30:47.514Z,38.44
2023-05-21T10:31:47.542Z,39.32
2023-05-21T10:32:47.603Z,36.28
2023-05-21T10:33:47.509Z,40.26
2023-05-21T10:34:47.495Z,37.10
2023-05-21T10:35:47.476Z,39.28
2023-05-21T10:36:47.483Z,36.59
2023-05-21T10:37:47.467Z,37.53
2023-05-21T10:38:47.451Z,36.07
2023-05-21T10:39:47.479Z,35.51
2023-05-21T10:40:47.454Z,38.15
2023-05-21T10:41:47.454Z,35.68
2023-05-21T10:42:47.431Z,35.97
2023-05-21T10:43:47.439Z,37.50
2023-05-21T10:44:47.442Z,36.10
2023-05-21T10:45:47.488Z,39.15
2023-05-21T10:46:47.411Z,36.55
2023-05-21T10:47:47.403Z,38.55
2023-05-21T10:48:47.394Z,36.50
2023-05-21T10:49:47.395Z,36.90
2023-05-21T10:50:47.368Z,37.85
2023-05-21T10:51:47.367Z,35.56
2023-05-21T10:52:47.374Z,35.61
2023-05-21T10:53:47.369Z,40.10
2023-05-21T10:54:47.344Z,38.60
2023-05-21T10:55:47.362Z,37.96
2023-05-21T10:56:47.352Z,36.61
2023-05-21T10:57:47.423Z,38.85
2023-05-21T10:58:47.424Z,37.83
2023-05-21T10:59:47.484Z,36.00
2023-05-21T11:00:47.666Z,36.75
2023-05-21T11:01:47.643Z,37.57
2023-05-21T11:02:47.697Z,36.02
2023-05-21T11:03:47.682Z,36.93
2023-05-21T11:04:47.737Z,34.73
2023-05-21T11:05:47.744Z,33.62
2023-05-21T11:06:47.765Z,36.97
2023-05-21T11:07:47.810Z,37.50
2023-05-21T11:08:47.850Z,35.96
2023-05-21T11:09:47.897Z,37.15
2023-05-21T11:10:47.958Z,34.21
2023-05-21T11:11:47.969Z,37.35
2023-05-21T11:12:48.019Z,35.69
2023-05-21T11:13:48.065Z,37.89
2023-05-21T11:14:48.103Z,37.18
2023-05-21T11:15:48.156Z,33.74
2023-05-21T11:16:48.198Z,34.45
2023-05-21T11:17:48.265Z,36.26
2023-05-21T11:18:48.281Z,33.32
2023-05-21T11:19:48.256Z,37.38
2023-05-21T11:20:48.299Z,32.06
2023-05-21T11:21:48.328Z,34.74
2023-05-21T11:22:48.392Z,37.79
2023-05-21T11:23:48.405Z,35.54
2023-05-21T11:24:50.648Z,37.28
2023-05-21T11:25:48.447Z,35.86
2023-05-21T11:26:48.428Z,38.15
2023-05-21T11:27:48.407Z,33.22
2023-05-21T11:28:48.415Z,35.45
2023-05-21T11:29:48.407Z,36.43
2023-05-21T11:30:48.402Z,36.07
2023-05-21T11:31:48.458Z,33.56
2023-05-21T11:32:48.446Z,33.78
2023-05-21T11:33:48.379Z,33.53
2023-05-21T11:34:48.371Z,32.46
2023-05-21T11:35:48.397Z,33.92
2023-05-21T11:36:48.374Z,35.52
2023-05-21T11:37:48.343Z,34.54
2023-05-21T11:38:48.338Z,31.97
2023-05-21T11:39:48.338Z,31.38
2023-05-21T11:40:48.367Z,34.17
2023-05-21T11:41:48.336Z,32.33
2023-05-21T11:42:48.323Z,31.68
2023-05-21T11:43:48.312Z,32.50
2023-05-21T11:44:48.329Z,30.43
2023-05-21T11:45:48.327Z,33.15
2023-05-21T11:46:48.313Z,31.29
2023-05-21T11:47:48.340Z,31.31
2023-05-21T11:48:48.267Z,32.33
2023-05-21T11:49:48.260Z,31.43
2023-05-21T11:50:48.286Z,31.54
2023-05-21T11:51:48.332Z,36.18
2023-05-21T11:52:48.245Z,33.35
2023-05-21T11:53:48.253Z,25.70
2023-05-21T11:54:48.237Z,27.06
2023-05-21T11:55:48.271Z,24.46
2023-05-21T11:56:48.235Z,25.56
2023-05-21T11:57:48.239Z,26.90
2023-05-21T11:58:48.208Z,30.40
2023-05-21T11:59:48.212Z,32.04
2023-05-21T12:00:48.227Z,34.92
2023-05-21T12:01:48.192Z,37.20
2023-05-21T12:02:48.239Z,38.77
2023-05-21T12:03:48.237Z,40.78
2023-05-21T12:04:48.170Z,40.60
2023-05-21T12:05:48.348Z,40.87
2023-05-21T12:06:48.169Z,43.66
2023-05-21T12:07:48.147Z,44.28
2023-05-21T12:08:48.134Z,47.72
2023-05-21T12:09:48.141Z,44.75
2023-05-21T12:10:48.123Z,45.57
2023-05-21T12:11:48.116Z,46.23
2023-05-21T12:12:55.426Z,47.56
2023-05-21T12:13:49.155Z,47.90
2023-05-21T12:14:48.092Z,48.53
2023-05-21T12:15:48.121Z,48.69
2023-05-21T12:16:48.168Z,49.93
2023-05-21T12:17:48.090Z,50.88
2023-05-21T12:18:48.080Z,48.29
2023-05-21T12:19:48.056Z,52.63
2023-05-21T12:20:48.064Z,52.82
2023-05-21T12:21:48.054Z,51.38
2023-05-21T12:22:48.054Z,46.22
2023-05-21T12:23:48.057Z,50.69
2023-05-21T12:24:48.032Z,52.58
2023-05-21T12:25:48.031Z,51.95
2023-05-21T12:26:48.046Z,52.36
2023-05-21T12:27:48.007Z,53.13
2023-05-21T12:28:48.001Z,53.61
2023-05-21T12:29:48.007Z,49.88
2023-05-21T12:30:48.027Z,51.42
2023-05-21T12:31:48.074Z,52.99
2023-05-21T12:32:48.093Z,51.52
2023-05-21T12:33:48.112Z,51.14
2023-05-21T12:34:48.131Z,47.57
2023-05-21T12:35:48.169Z,52.01
2023-05-21T12:36:48.191Z,50.59
2023-05-21T12:37:48.210Z,52.42
2023-05-21T12:38:48.221Z,51.50
2023-05-21T12:39:48.268Z,46.66
2023-05-21T12:40:48.298Z,49.02
2023-05-21T12:41:48.300Z,50.92
2023-05-21T12:42:48.345Z,49.83
2023-05-21T12:43:48.381Z,49.89
2023-05-21T12:44:48.414Z,54.43
2023-05-21T12:45:48.458Z,51.66
2023-05-21T12:46:48.458Z,50.97
2023-05-21T12:47:48.513Z,49.82
2023-05-21T12:48:48.497Z,47.03
2023-05-21T12:49:48.530Z,50.07
2023-05-21T12:50:48.562Z,50.06
2023-05-21T12:51:48.588Z,53.79
2023-05-21T12:52:48.632Z,49.48